sensor_id;sensor_type;location;lat;lon;timestamp;temperature;humidity
46336;DHT22;31365;48.858;8.530;2023-02-28T00:01:57;-0.50;99.90
46336;DHT22;31365;48.858;8.530;2023-02-28T00:04:28;-0.50;99.90
46336;DHT22;31365;48.858;8.530;2023-02-28T00:06:57;-0.50;99.90
46336;DHT22;31365;48.858;8.530;2023-02-28T00:09:26;-0.50;99.90
46336;DHT22;31365;48.858;8.530;2023-02-28T00:11:54;-0.60;99.90
46336;DHT22;31365;48.858;8.530;2023-02-28T00:14:23;-0.50;99.90
46336;DHT22;31365;48.858;8.530;2023-02-28T00:16:52;-0.60;99.90
46336;DHT22;31365;48.858;8.530;2023-02-28T00:19:22;-0.70;99.90
46336;DHT22;31365;48.858;8.530;2023-02-28T00:21:51;-0.70;99.90
46336;DHT22;31365;48.858;8.530;2023-02-28T00:24:20;-0.70;99.90
46336;DHT22;31365;48.858;8.530;2023-02-28T00:26:49;-0.70;99.90
46336;DHT22;31365;48.858;8.530;2023-02-28T00:29:18;-0.70;99.90
46336;DHT22;31365;48.858;8.530;2023-02-28T00:31:46;-0.70;99.90
46336;DHT22;31365;48.858;8.530;2023-02-28T00:34:15;-0.80;99.90
46336;DHT22;31365;48.858;8.530;2023-02-28T00:36:44;-0.80;99.90
46336;DHT22;31365;48.858;8.530;2023-02-28T00:39:18;-0.90;99.90
46336;DHT22;31365;48.858;8.530;2023-02-28T00:41:47;-0.90;99.90
46336;DHT22;31365;48.858;8.530;2023-02-28T00:44:16;-0.90;99.90
46336;DHT22;31365;48.858;8.530;2023-02-28T00:46:46;-0.90;99.90
46336;DHT22;31365;48.858;8.530;2023-02-28T00:49:14;-0.90;99.90
46336;DHT22;31365;48.858;8.530;2023-02-28T00:51:42;-0.90;99.90
46336;DHT22;31365;48.858;8.530;2023-02-28T00:54:11;-0.90;99.90
46336;DHT22;31365;48.858;8.530;2023-02-28T00:56:42;-1.00;99.90
46336;DHT22;31365;48.858;8.530;2023-02-28T00:59:12;-0.90;99.90
46336;DHT22;31365;48.858;8.530;2023-02-28T01:01:41;-1.00;99.90
46336;DHT22;31365;48.858;8.530;2023-02-28T01:04:11;-1.00;99.90
46336;DHT22;31365;48.858;8.530;2023-02-28T01:06:41;-1.00;99.90
46336;DHT22;31365;48.858;8.530;2023-02-28T01:09:11;-1.00;99.90
46336;DHT22;31365;48.858;8.530;2023-02-28T01:11:43;-1.00;99.90
46336;DHT22;31365;48.858;8.530;2023-02-28T01:14:13;-1.00;99.90
46336;DHT22;31365;48.858;8.530;2023-02-28T01:16:44;-1.00;99.90
46336;DHT22;31365;48.858;8.530;2023-02-28T01:19:13;-1.00;99.90
46336;DHT22;31365;48.858;8.530;2023-02-28T01:21:42;-1.00;99.90
46336;DHT22;31365;48.858;8.530;2023-02-28T01:24:12;-1.00;99.90
46336;DHT22;31365;48.858;8.530;2023-02-28T01:26:42;-1.00;99.90
46336;DHT22;31365;48.858;8.530;2023-02-28T01:29:10;-1.00;99.90
46336;DHT22;31365;48.858;8.530;2023-02-28T01:31:39;-1.00;99.90
46336;DHT22;31365;48.858;8.530;2023-02-28T01:34:07;-1.10;99.90
46336;DHT22;31365;48.858;8.530;2023-02-28T01:36:37;-1.10;99.90
46336;DHT22;31365;48.858;8.530;2023-02-28T01:39:06;-1.10;99.90
46336;DHT22;31365;48.858;8.530;2023-02-28T01:41:34;-1.10;99.90
46336;DHT22;31365;48.858;8.530;2023-02-28T01:44:06;-1.10;99.90
46336;DHT22;31365;48.858;8.530;2023-02-28T01:46:55;-1.10;99.90
46336;DHT22;31365;48.858;8.530;2023-02-28T01:49:24;-1.10;99.90
46336;DHT22;31365;48.858;8.530;2023-02-28T01:51:54;-1.10;99.90
46336;DHT22;31365;48.858;8.530;2023-02-28T01:54:29;-1.20;99.90
46336;DHT22;31365;48.858;8.530;2023-02-28T01:57:04;-1.20;99.90
46336;DHT22;31365;48.858;8.530;2023-02-28T01:59:41;-1.10;99.90
46336;DHT22;31365;48.858;8.530;2023-02-28T02:02:20;-1.00;99.90
46336;DHT22;31365;48.858;8.530;2023-02-28T02:04:54;-1.20;99.90
46336;DHT22;31365;48.858;8.530;2023-02-28T02:07:26;-1.20;99.90
46336;DHT22;31365;48.858;8.530;2023-02-28T02:10:00;-1.20;99.90
46336;DHT22;31365;48.858;8.530;2023-02-28T02:13:00;-1.30;99.90
46336;DHT22;31365;48.858;8.530;2023-02-28T02:16:00;-1.20;99.90
46336;DHT22;31365;48.858;8.530;2023-02-28T02:18:43;-1.10;99.90
46336;DHT22;31365;48.858;8.530;2023-02-28T02:21:31;-1.30;99.90
46336;DHT22;31365;48.858;8.530;2023-02-28T02:24:40;-1.30;99.90
46336;DHT22;31365;48.858;8.530;2023-02-28T02:27:29;-1.30;99.90
46336;DHT22;31365;48.858;8.530;2023-02-28T02:30:37;-1.40;99.90
46336;DHT22;31365;48.858;8.530;2023-02-28T02:33:30;-1.40;99.90
46336;DHT22;31365;48.858;8.530;2023-02-28T02:36:33;-1.50;99.90
46336;DHT22;31365;48.858;8.530;2023-02-28T02:39:13;-1.60;99.90
46336;DHT22;31365;48.858;8.530;2023-02-28T02:41:48;-1.60;99.90
46336;DHT22;31365;48.858;8.530;2023-02-28T02:44:22;-1.70;99.90
46336;DHT22;31365;48.858;8.530;2023-02-28T02:46:59;-1.70;99.90
46336;DHT22;31365;48.858;8.530;2023-02-28T02:49:36;-1.80;99.90
46336;DHT22;31365;48.858;8.530;2023-02-28T02:52:09;-1.80;99.90
46336;DHT22;31365;48.858;8.530;2023-02-28T02:54:45;-1.80;99.90
46336;DHT22;31365;48.858;8.530;2023-02-28T02:57:23;-1.90;99.90
46336;DHT22;31365;48.858;8.530;2023-02-28T02:59:59;-1.90;99.90
46336;DHT22;31365;48.858;8.530;2023-02-28T03:02:30;-1.80;99.90
46336;DHT22;31365;48.858;8.530;2023-02-28T03:05:04;-1.80;99.90
46336;DHT22;31365;48.858;8.530;2023-02-28T03:07:44;-1.80;99.90
46336;DHT22;31365;48.858;8.530;2023-02-28T03:10:30;-1.80;99.90
46336;DHT22;31365;48.858;8.530;2023-02-28T03:16:40;-1.70;99.90
46336;DHT22;31365;48.858;8.530;2023-02-28T03:19:33;-1.80;99.90
46336;DHT22;31365;48.858;8.530;2023-02-28T03:22:18;-1.80;99.90
46336;DHT22;31365;48.858;8.530;2023-02-28T03:25:06;-1.80;99.90
46336;DHT22;31365;48.858;8.530;2023-02-28T03:27:42;-1.80;99.90
46336;DHT22;31365;48.858;8.530;2023-02-28T03:30:24;-1.70;99.90
46336;DHT22;31365;48.858;8.530;2023-02-28T03:33:02;-1.60;99.90
46336;DHT22;31365;48.858;8.530;2023-02-28T03:35:37;-1.50;99.90
46336;DHT22;31365;48.858;8.530;2023-02-28T03:38:11;-1.50;99.90
46336;DHT22;31365;48.858;8.530;2023-02-28T03:40:49;-1.50;99.90
46336;DHT22;31365;48.858;8.530;2023-02-28T03:43:24;-1.50;99.90
46336;DHT22;31365;48.858;8.530;2023-02-28T03:45:56;-1.40;99.90
46336;DHT22;31365;48.858;8.530;2023-02-28T03:48:33;-1.40;99.90
46336;DHT22;31365;48.858;8.530;2023-02-28T03:51:08;-1.30;99.90
46336;DHT22;31365;48.858;8.530;2023-02-28T03:53:45;-1.20;99.90
46336;DHT22;31365;48.858;8.530;2023-02-28T03:56:23;-1.20;99.90
46336;DHT22;31365;48.858;8.530;2023-02-28T03:59:00;-1.10;99.90
46336;DHT22;31365;48.858;8.530;2023-02-28T04:01:35;-1.10;99.90
46336;DHT22;31365;48.858;8.530;2023-02-28T04:04:08;-1.10;99.90
46336;DHT22;31365;48.858;8.530;2023-02-28T04:06:38;-1.10;99.90
46336;DHT22;31365;48.858;8.530;2023-02-28T04:09:11;-1.10;99.90
46336;DHT22;31365;48.858;8.530;2023-02-28T04:11:44;-1.10;99.90
46336;DHT22;31365;48.858;8.530;2023-02-28T04:14:16;-1.10;99.90
46336;DHT22;31365;48.858;8.530;2023-02-28T04:16:45;-1.00;99.90
46336;DHT22;31365;48.858;8.530;2023-02-28T04:19:14;-1.00;99.90
46336;DHT22;31365;48.858;8.530;2023-02-28T04:21:44;-1.00;99.90
46336;DHT22;31365;48.858;8.530;2023-02-28T04:24:15;-0.70;99.90
46336;DHT22;31365;48.858;8.530;2023-02-28T04:26:48;-1.00;99.90
46336;DHT22;31365;48.858;8.530;2023-02-28T04:29:23;-1.00;99.90
46336;DHT22;31365;48.858;8.530;2023-02-28T04:31:55;-0.90;99.90
46336;DHT22;31365;48.858;8.530;2023-02-28T04:34:25;-0.90;99.90
46336;DHT22;31365;48.858;8.530;2023-02-28T04:36:55;-1.00;99.90
46336;DHT22;31365;48.858;8.530;2023-02-28T04:39:40;-1.00;99.90
46336;DHT22;31365;48.858;8.530;2023-02-28T04:42:12;-0.90;99.90
46336;DHT22;31365;48.858;8.530;2023-02-28T04:44:41;-1.00;99.90
46336;DHT22;31365;48.858;8.530;2023-02-28T04:47:10;-1.00;99.90
46336;DHT22;31365;48.858;8.530;2023-02-28T04:49:38;-1.00;99.90
46336;DHT22;31365;48.858;8.530;2023-02-28T04:52:08;-1.10;99.90
46336;DHT22;31365;48.858;8.530;2023-02-28T04:54:38;-1.10;99.90
46336;DHT22;31365;48.858;8.530;2023-02-28T04:57:06;-1.10;99.90
46336;DHT22;31365;48.858;8.530;2023-02-28T04:59:40;-1.00;99.90
46336;DHT22;31365;48.858;8.530;2023-02-28T05:02:08;-1.20;99.90
46336;DHT22;31365;48.858;8.530;2023-02-28T05:04:37;-1.20;99.90
46336;DHT22;31365;48.858;8.530;2023-02-28T05:07:05;-1.20;99.90
46336;DHT22;31365;48.858;8.530;2023-02-28T05:09:34;-1.20;99.90
46336;DHT22;31365;48.858;8.530;2023-02-28T05:12:02;-1.10;99.90
46336;DHT22;31365;48.858;8.530;2023-02-28T05:14:31;-1.20;99.90
46336;DHT22;31365;48.858;8.530;2023-02-28T05:17:02;-1.10;99.90
46336;DHT22;31365;48.858;8.530;2023-02-28T05:19:30;-1.10;99.90
46336;DHT22;31365;48.858;8.530;2023-02-28T05:22:00;-1.10;99.90
46336;DHT22;31365;48.858;8.530;2023-02-28T05:24:29;-1.00;99.90
46336;DHT22;31365;48.858;8.530;2023-02-28T05:26:59;-1.00;99.90
46336;DHT22;31365;48.858;8.530;2023-02-28T05:29:28;-1.00;99.90
46336;DHT22;31365;48.858;8.530;2023-02-28T05:31:56;-1.00;99.90
46336;DHT22;31365;48.858;8.530;2023-02-28T05:34:28;-0.90;99.90
46336;DHT22;31365;48.858;8.530;2023-02-28T05:36:58;-0.90;99.90
46336;DHT22;31365;48.858;8.530;2023-02-28T05:39:26;-0.90;99.90
46336;DHT22;31365;48.858;8.530;2023-02-28T05:41:55;-0.90;99.90
46336;DHT22;31365;48.858;8.530;2023-02-28T05:44:24;-0.80;99.90
46336;DHT22;31365;48.858;8.530;2023-02-28T05:46:52;-0.80;99.90
46336;DHT22;31365;48.858;8.530;2023-02-28T05:49:21;-0.80;99.90
46336;DHT22;31365;48.858;8.530;2023-02-28T05:51:51;-0.70;99.90
46336;DHT22;31365;48.858;8.530;2023-02-28T05:54:20;-0.70;99.90
46336;DHT22;31365;48.858;8.530;2023-02-28T05:56:48;-0.70;99.90
46336;DHT22;31365;48.858;8.530;2023-02-28T05:59:16;-0.70;99.90
46336;DHT22;31365;48.858;8.530;2023-02-28T06:01:46;-0.70;99.90
46336;DHT22;31365;48.858;8.530;2023-02-28T06:04:17;-0.60;99.90
46336;DHT22;31365;48.858;8.530;2023-02-28T06:06:59;-0.70;99.90
46336;DHT22;31365;48.858;8.530;2023-02-28T06:09:29;-0.70;99.90
46336;DHT22;31365;48.858;8.530;2023-02-28T06:11:58;-0.60;99.90
46336;DHT22;31365;48.858;8.530;2023-02-28T06:14:27;-0.70;99.90
46336;DHT22;31365;48.858;8.530;2023-02-28T06:16:58;-0.60;99.90
46336;DHT22;31365;48.858;8.530;2023-02-28T06:19:27;-0.60;99.90
46336;DHT22;31365;48.858;8.530;2023-02-28T06:21:58;-0.60;99.90
46336;DHT22;31365;48.858;8.530;2023-02-28T06:24:27;-0.60;99.90
46336;DHT22;31365;48.858;8.530;2023-02-28T06:26:57;-0.50;99.90
46336;DHT22;31365;48.858;8.530;2023-02-28T06:29:32;-0.50;99.90
46336;DHT22;31365;48.858;8.530;2023-02-28T06:32:00;-0.50;99.90
46336;DHT22;31365;48.858;8.530;2023-02-28T06:34:29;-0.50;99.90
46336;DHT22;31365;48.858;8.530;2023-02-28T06:37:00;-0.40;99.90
46336;DHT22;31365;48.858;8.530;2023-02-28T06:39:29;-0.50;99.90
46336;DHT22;31365;48.858;8.530;2023-02-28T06:41:57;-0.40;99.90
46336;DHT22;31365;48.858;8.530;2023-02-28T06:44:26;-0.40;99.90
46336;DHT22;31365;48.858;8.530;2023-02-28T06:47:03;-0.40;99.90
46336;DHT22;31365;48.858;8.530;2023-02-28T06:49:35;-0.40;99.90
46336;DHT22;31365;48.858;8.530;2023-02-28T06:52:07;-0.40;99.90
46336;DHT22;31365;48.858;8.530;2023-02-28T06:54:37;-0.10;99.90
46336;DHT22;31365;48.858;8.530;2023-02-28T06:57:05;0.00;99.90
46336;DHT22;31365;48.858;8.530;2023-02-28T06:59:34;-0.30;99.90
46336;DHT22;31365;48.858;8.530;2023-02-28T07:02:03;-0.30;99.90
46336;DHT22;31365;48.858;8.530;2023-02-28T07:04:33;-0.30;99.90
46336;DHT22;31365;48.858;8.530;2023-02-28T07:07:02;-0.30;99.90
46336;DHT22;31365;48.858;8.530;2023-02-28T07:09:32;-0.30;99.90
46336;DHT22;31365;48.858;8.530;2023-02-28T07:12:01;-0.20;99.90
46336;DHT22;31365;48.858;8.530;2023-02-28T07:14:30;-0.20;99.90
46336;DHT22;31365;48.858;8.530;2023-02-28T07:16:59;-0.10;99.90
46336;DHT22;31365;48.858;8.530;2023-02-28T07:19:27;-0.10;99.90
46336;DHT22;31365;48.858;8.530;2023-02-28T07:21:56;-0.10;99.90
46336;DHT22;31365;48.858;8.530;2023-02-28T07:24:24;-0.10;99.90
46336;DHT22;31365;48.858;8.530;2023-02-28T07:26:58;-0.10;99.90
46336;DHT22;31365;48.858;8.530;2023-02-28T07:29:28;-0.10;99.90
46336;DHT22;31365;48.858;8.530;2023-02-28T07:31:56;-0.10;99.90
46336;DHT22;31365;48.858;8.530;2023-02-28T07:34:25;0.00;99.90
46336;DHT22;31365;48.858;8.530;2023-02-28T07:36:54;0.00;99.90
46336;DHT22;31365;48.858;8.530;2023-02-28T07:39:23;0.00;99.90
46336;DHT22;31365;48.858;8.530;2023-02-28T07:41:51;0.10;99.90
46336;DHT22;31365;48.858;8.530;2023-02-28T07:44:25;0.10;99.90
46336;DHT22;31365;48.858;8.530;2023-02-28T07:46:54;0.20;99.90
46336;DHT22;31365;48.858;8.530;2023-02-28T07:49:23;0.20;99.90
46336;DHT22;31365;48.858;8.530;2023-02-28T07:51:51;0.30;99.90
46336;DHT22;31365;48.858;8.530;2023-02-28T07:54:20;0.20;99.90
46336;DHT22;31365;48.858;8.530;2023-02-28T07:56:49;0.20;99.90
46336;DHT22;31365;48.858;8.530;2023-02-28T07:59:17;0.20;99.90
46336;DHT22;31365;48.858;8.530;2023-02-28T08:01:47;0.30;99.90
46336;DHT22;31365;48.858;8.530;2023-02-28T08:04:17;0.40;99.90
46336;DHT22;31365;48.858;8.530;2023-02-28T08:06:46;0.30;99.90
46336;DHT22;31365;48.858;8.530;2023-02-28T08:09:19;0.30;99.90
46336;DHT22;31365;48.858;8.530;2023-02-28T08:11:48;0.30;99.90
46336;DHT22;31365;48.858;8.530;2023-02-28T08:14:17;0.30;99.90
46336;DHT22;31365;48.858;8.530;2023-02-28T08:16:47;0.40;99.90
46336;DHT22;31365;48.858;8.530;2023-02-28T08:19:15;0.40;99.90
46336;DHT22;31365;48.858;8.530;2023-02-28T08:21:44;0.50;99.90
46336;DHT22;31365;48.858;8.530;2023-02-28T08:24:13;0.40;99.90
46336;DHT22;31365;48.858;8.530;2023-02-28T08:26:41;0.40;99.90
46336;DHT22;31365;48.858;8.530;2023-02-28T08:29:10;0.40;99.90
46336;DHT22;31365;48.858;8.530;2023-02-28T08:31:39;0.50;99.90
46336;DHT22;31365;48.858;8.530;2023-02-28T08:34:12;0.50;99.90
46336;DHT22;31365;48.858;8.530;2023-02-28T08:36:46;0.60;99.90
46336;DHT22;31365;48.858;8.530;2023-02-28T08:39:14;0.60;99.90
46336;DHT22;31365;48.858;8.530;2023-02-28T08:41:43;0.70;99.90
46336;DHT22;31365;48.858;8.530;2023-02-28T08:44:15;0.70;99.90
46336;DHT22;31365;48.858;8.530;2023-02-28T08:46:43;0.80;99.90
46336;DHT22;31365;48.858;8.530;2023-02-28T08:49:14;0.80;99.90
46336;DHT22;31365;48.858;8.530;2023-02-28T08:51:43;0.80;99.90
46336;DHT22;31365;48.858;8.530;2023-02-28T08:54:12;0.80;99.90
46336;DHT22;31365;48.858;8.530;2023-02-28T08:56:42;0.70;99.90
46336;DHT22;31365;48.858;8.530;2023-02-28T08:59:11;0.80;99.90
46336;DHT22;31365;48.858;8.530;2023-02-28T09:01:40;0.80;99.90
46336;DHT22;31365;48.858;8.530;2023-02-28T09:04:10;0.80;99.90
46336;DHT22;31365;48.858;8.530;2023-02-28T09:06:47;0.90;99.90
46336;DHT22;31365;48.858;8.530;2023-02-28T09:09:16;0.90;99.90
46336;DHT22;31365;48.858;8.530;2023-02-28T09:11:44;0.90;99.90
46336;DHT22;31365;48.858;8.530;2023-02-28T09:14:13;1.00;99.90
46336;DHT22;31365;48.858;8.530;2023-02-28T09:16:44;1.00;99.90
46336;DHT22;31365;48.858;8.530;2023-02-28T09:19:15;1.00;99.90
46336;DHT22;31365;48.858;8.530;2023-02-28T09:21:52;1.00;99.90
46336;DHT22;31365;48.858;8.530;2023-02-28T09:24:20;1.10;99.90
46336;DHT22;31365;48.858;8.530;2023-02-28T09:26:49;1.10;99.90
46336;DHT22;31365;48.858;8.530;2023-02-28T09:29:30;1.10;99.90
46336;DHT22;31365;48.858;8.530;2023-02-28T09:32:00;1.10;99.90
46336;DHT22;31365;48.858;8.530;2023-02-28T09:34:33;1.10;99.90
46336;DHT22;31365;48.858;8.530;2023-02-28T09:37:07;1.20;99.90
46336;DHT22;31365;48.858;8.530;2023-02-28T09:39:35;1.20;99.90
46336;DHT22;31365;48.858;8.530;2023-02-28T09:42:04;1.20;99.90
46336;DHT22;31365;48.858;8.530;2023-02-28T09:44:37;1.30;99.90
46336;DHT22;31365;48.858;8.530;2023-02-28T09:47:14;1.40;99.90
46336;DHT22;31365;48.858;8.530;2023-02-28T09:49:55;1.50;99.90
46336;DHT22;31365;48.858;8.530;2023-02-28T09:52:29;1.60;99.90
46336;DHT22;31365;48.858;8.530;2023-02-28T09:55:19;1.60;99.90
46336;DHT22;31365;48.858;8.530;2023-02-28T09:57:53;1.70;99.90
46336;DHT22;31365;48.858;8.530;2023-02-28T10:00:31;1.80;99.90
46336;DHT22;31365;48.858;8.530;2023-02-28T10:03:20;1.80;99.90
46336;DHT22;31365;48.858;8.530;2023-02-28T10:05:59;1.90;99.90
46336;DHT22;31365;48.858;8.530;2023-02-28T10:08:37;1.90;99.90
46336;DHT22;31365;48.858;8.530;2023-02-28T10:11:12;1.90;99.90
46336;DHT22;31365;48.858;8.530;2023-02-28T10:13:52;1.90;99.90
46336;DHT22;31365;48.858;8.530;2023-02-28T10:16:32;1.90;99.90
46336;DHT22;31365;48.858;8.530;2023-02-28T10:19:10;1.90;99.90
46336;DHT22;31365;48.858;8.530;2023-02-28T10:21:47;2.00;99.90
46336;DHT22;31365;48.858;8.530;2023-02-28T10:24:29;1.90;99.90
46336;DHT22;31365;48.858;8.530;2023-02-28T10:27:12;2.00;99.90
46336;DHT22;31365;48.858;8.530;2023-02-28T10:29:47;2.30;99.90
46336;DHT22;31365;48.858;8.530;2023-02-28T10:32:20;2.10;99.90
46336;DHT22;31365;48.858;8.530;2023-02-28T10:34:58;2.40;99.90
46336;DHT22;31365;48.858;8.530;2023-02-28T10:37:30;2.10;99.90
46336;DHT22;31365;48.858;8.530;2023-02-28T10:40:01;2.10;99.90
46336;DHT22;31365;48.858;8.530;2023-02-28T10:42:34;2.10;99.90
46336;DHT22;31365;48.858;8.530;2023-02-28T10:45:11;2.20;99.90
46336;DHT22;31365;48.858;8.530;2023-02-28T10:47:49;2.20;99.90
46336;DHT22;31365;48.858;8.530;2023-02-28T10:50:28;2.20;99.90
46336;DHT22;31365;48.858;8.530;2023-02-28T10:53:13;2.30;99.90
46336;DHT22;31365;48.858;8.530;2023-02-28T10:56:16;2.30;99.90
46336;DHT22;31365;48.858;8.530;2023-02-28T10:58:52;2.40;99.90
46336;DHT22;31365;48.858;8.530;2023-02-28T11:01:27;2.40;99.90
46336;DHT22;31365;48.858;8.530;2023-02-28T11:04:17;2.40;99.90
46336;DHT22;31365;48.858;8.530;2023-02-28T11:06:56;2.50;99.90
46336;DHT22;31365;48.858;8.530;2023-02-28T11:09:30;2.40;99.90
46336;DHT22;31365;48.858;8.530;2023-02-28T11:12:06;2.50;99.90
46336;DHT22;31365;48.858;8.530;2023-02-28T11:14:48;2.50;99.90
46336;DHT22;31365;48.858;8.530;2023-02-28T11:17:21;2.60;99.90
46336;DHT22;31365;48.858;8.530;2023-02-28T11:19:53;2.70;99.90
46336;DHT22;31365;48.858;8.530;2023-02-28T11:22:35;2.80;99.90
46336;DHT22;31365;48.858;8.530;2023-02-28T11:25:16;3.00;99.90
46336;DHT22;31365;48.858;8.530;2023-02-28T11:27:57;3.20;99.90
46336;DHT22;31365;48.858;8.530;2023-02-28T11:30:36;3.30;99.90
46336;DHT22;31365;48.858;8.530;2023-02-28T11:33:23;3.50;99.90
46336;DHT22;31365;48.858;8.530;2023-02-28T11:35:58;3.70;99.90
46336;DHT22;31365;48.858;8.530;2023-02-28T11:38:34;3.80;99.90
46336;DHT22;31365;48.858;8.530;2023-02-28T11:41:35;3.90;99.90
46336;DHT22;31365;48.858;8.530;2023-02-28T11:44:36;3.90;99.90
46336;DHT22;31365;48.858;8.530;2023-02-28T11:47:25;4.10;99.90
46336;DHT22;31365;48.858;8.530;2023-02-28T11:50:12;3.80;99.90
46336;DHT22;31365;48.858;8.530;2023-02-28T11:52:56;3.70;99.90
46336;DHT22;31365;48.858;8.530;2023-02-28T11:55:34;3.60;99.90
46336;DHT22;31365;48.858;8.530;2023-02-28T11:58:20;3.60;99.90
46336;DHT22;31365;48.858;8.530;2023-02-28T12:01:32;3.70;99.90
46336;DHT22;31365;48.858;8.530;2023-02-28T12:04:17;3.80;99.90
46336;DHT22;31365;48.858;8.530;2023-02-28T12:07:00;3.90;99.90
46336;DHT22;31365;48.858;8.530;2023-02-28T12:09:45;4.20;99.90
46336;DHT22;31365;48.858;8.530;2023-02-28T12:12:32;4.50;99.90
46336;DHT22;31365;48.858;8.530;2023-02-28T12:15:43;5.20;99.90
46336;DHT22;31365;48.858;8.530;2023-02-28T12:18:48;5.60;99.90
46336;DHT22;31365;48.858;8.530;2023-02-28T12:21:32;5.70;99.90
46336;DHT22;31365;48.858;8.530;2023-02-28T12:24:25;6.00;99.90
46336;DHT22;31365;48.858;8.530;2023-02-28T12:27:09;6.00;99.90
46336;DHT22;31365;48.858;8.530;2023-02-28T12:29:47;5.80;99.90
46336;DHT22;31365;48.858;8.530;2023-02-28T12:32:23;5.70;99.90
46336;DHT22;31365;48.858;8.530;2023-02-28T12:35:02;5.70;99.90
46336;DHT22;31365;48.858;8.530;2023-02-28T12:37:40;5.60;99.90
46336;DHT22;31365;48.858;8.530;2023-02-28T12:40:17;5.60;99.90
46336;DHT22;31365;48.858;8.530;2023-02-28T12:42:52;5.50;99.90
46336;DHT22;31365;48.858;8.530;2023-02-28T12:45:29;5.60;99.90
46336;DHT22;31365;48.858;8.530;2023-02-28T12:48:09;6.10;99.90
46336;DHT22;31365;48.858;8.530;2023-02-28T12:50:46;6.30;99.90
46336;DHT22;31365;48.858;8.530;2023-02-28T12:53:24;6.30;99.90
46336;DHT22;31365;48.858;8.530;2023-02-28T12:56:09;6.40;99.90
46336;DHT22;31365;48.858;8.530;2023-02-28T12:58:48;7.50;99.90
46336;DHT22;31365;48.858;8.530;2023-02-28T13:05:29;9.90;99.90
46336;DHT22;31365;48.858;8.530;2023-02-28T13:41:45;7.90;99.90
46336;DHT22;31365;48.858;8.530;2023-02-28T13:44:18;7.40;99.90
46336;DHT22;31365;48.858;8.530;2023-02-28T13:47:22;8.10;99.90
46336;DHT22;31365;48.858;8.530;2023-02-28T13:50:14;8.40;99.90
46336;DHT22;31365;48.858;8.530;2023-02-28T13:53:00;8.50;99.90
46336;DHT22;31365;48.858;8.530;2023-02-28T13:55:52;9.00;99.90
46336;DHT22;31365;48.858;8.530;2023-02-28T13:58:41;9.10;99.90
46336;DHT22;31365;48.858;8.530;2023-02-28T14:01:36;9.30;99.90
46336;DHT22;31365;48.858;8.530;2023-02-28T14:04:54;8.90;99.90
46336;DHT22;31365;48.858;8.530;2023-02-28T14:07:33;9.80;99.90
46336;DHT22;31365;48.858;8.530;2023-02-28T14:13:54;13.00;96.60
46336;DHT22;31365;48.858;8.530;2023-02-28T14:16:23;13.50;93.90
46336;DHT22;31365;48.858;8.530;2023-02-28T14:18:58;13.70;92.80
46336;DHT22;31365;48.858;8.530;2023-02-28T14:21:33;13.00;92.70
46336;DHT22;31365;48.858;8.530;2023-02-28T14:27:35;12.00;93.50
46336;DHT22;31365;48.858;8.530;2023-02-28T14:30:36;12.10;93.30
46336;DHT22;31365;48.858;8.530;2023-02-28T14:33:21;10.80;93.30
46336;DHT22;31365;48.858;8.530;2023-02-28T14:36:26;10.30;95.10
46336;DHT22;31365;48.858;8.530;2023-02-28T14:39:13;9.70;95.20
46336;DHT22;31365;48.858;8.530;2023-02-28T14:42:29;9.10;95.90
46336;DHT22;31365;48.858;8.530;2023-02-28T14:45:16;8.90;96.50
46336;DHT22;31365;48.858;8.530;2023-02-28T14:47:50;8.80;97.00
46336;DHT22;31365;48.858;8.530;2023-02-28T14:50:22;8.20;97.30
46336;DHT22;31365;48.858;8.530;2023-02-28T14:52:55;8.20;97.80
46336;DHT22;31365;48.858;8.530;2023-02-28T14:55:29;8.20;98.50
46336;DHT22;31365;48.858;8.530;2023-02-28T14:58:01;8.40;98.10
46336;DHT22;31365;48.858;8.530;2023-02-28T15:00:34;8.80;98.00
46336;DHT22;31365;48.858;8.530;2023-02-28T15:03:21;8.10;98.30
46336;DHT22;31365;48.858;8.530;2023-02-28T15:05:52;8.00;98.30
46336;DHT22;31365;48.858;8.530;2023-02-28T15:08:23;7.90;98.50
46336;DHT22;31365;48.858;8.530;2023-02-28T15:10:54;7.80;98.40
46336;DHT22;31365;48.858;8.530;2023-02-28T15:13:31;7.40;98.80
46336;DHT22;31365;48.858;8.530;2023-02-28T15:16:08;7.20;99.60
46336;DHT22;31365;48.858;8.530;2023-02-28T15:18:47;6.90;99.90
46336;DHT22;31365;48.858;8.530;2023-02-28T15:21:22;6.70;99.90
46336;DHT22;31365;48.858;8.530;2023-02-28T15:23:55;6.60;99.90
46336;DHT22;31365;48.858;8.530;2023-02-28T15:26:31;6.50;99.90
46336;DHT22;31365;48.858;8.530;2023-02-28T15:29:06;6.70;99.90
46336;DHT22;31365;48.858;8.530;2023-02-28T15:31:41;6.70;99.90
46336;DHT22;31365;48.858;8.530;2023-02-28T15:34:30;6.40;99.90
46336;DHT22;31365;48.858;8.530;2023-02-28T15:37:27;6.30;99.90
46336;DHT22;31365;48.858;8.530;2023-02-28T15:40:07;6.20;99.90
46336;DHT22;31365;48.858;8.530;2023-02-28T15:42:40;6.20;99.90
46336;DHT22;31365;48.858;8.530;2023-02-28T15:45:33;6.20;99.90
46336;DHT22;31365;48.858;8.530;2023-02-28T15:48:09;6.10;99.90
46336;DHT22;31365;48.858;8.530;2023-02-28T15:50:48;6.10;99.90
46336;DHT22;31365;48.858;8.530;2023-02-28T15:53:22;6.30;99.90
46336;DHT22;31365;48.858;8.530;2023-02-28T15:55:58;5.80;99.90
46336;DHT22;31365;48.858;8.530;2023-02-28T15:58:29;5.90;99.90
46336;DHT22;31365;48.858;8.530;2023-02-28T16:01:07;5.70;99.90
46336;DHT22;31365;48.858;8.530;2023-02-28T16:03:48;5.60;99.90
46336;DHT22;31365;48.858;8.530;2023-02-28T16:06:33;5.40;99.90
46336;DHT22;31365;48.858;8.530;2023-02-28T16:09:05;5.30;99.90
46336;DHT22;31365;48.858;8.530;2023-02-28T16:11:42;5.30;99.90
46336;DHT22;31365;48.858;8.530;2023-02-28T16:14:18;5.20;99.90
46336;DHT22;31365;48.858;8.530;2023-02-28T16:16:52;5.50;99.90
46336;DHT22;31365;48.858;8.530;2023-02-28T16:19:22;5.00;99.90
46336;DHT22;31365;48.858;8.530;2023-02-28T16:21:54;5.00;99.90
46336;DHT22;31365;48.858;8.530;2023-02-28T16:24:25;5.00;99.90
46336;DHT22;31365;48.858;8.530;2023-02-28T16:26:54;4.90;99.90
46336;DHT22;31365;48.858;8.530;2023-02-28T16:29:29;5.00;99.90
46336;DHT22;31365;48.858;8.530;2023-02-28T16:32:01;4.80;99.90
46336;DHT22;31365;48.858;8.530;2023-02-28T16:34:33;4.70;99.90
46336;DHT22;31365;48.858;8.530;2023-02-28T16:37:07;4.70;99.90
46336;DHT22;31365;48.858;8.530;2023-02-28T16:39:40;4.70;99.90
46336;DHT22;31365;48.858;8.530;2023-02-28T16:42:14;4.60;99.90
46336;DHT22;31365;48.858;8.530;2023-02-28T16:44:49;4.60;99.90
46336;DHT22;31365;48.858;8.530;2023-02-28T16:47:19;4.50;99.90
46336;DHT22;31365;48.858;8.530;2023-02-28T16:49:50;4.50;99.90
46336;DHT22;31365;48.858;8.530;2023-02-28T16:52:20;4.40;99.90
46336;DHT22;31365;48.858;8.530;2023-02-28T16:54:49;4.30;99.90
46336;DHT22;31365;48.858;8.530;2023-02-28T16:57:21;4.20;99.90
46336;DHT22;31365;48.858;8.530;2023-02-28T17:00:00;4.20;99.90
46336;DHT22;31365;48.858;8.530;2023-02-28T17:02:30;4.10;99.90
46336;DHT22;31365;48.858;8.530;2023-02-28T17:05:00;4.00;99.90
46336;DHT22;31365;48.858;8.530;2023-02-28T17:07:30;4.00;99.90
46336;DHT22;31365;48.858;8.530;2023-02-28T17:09:59;3.90;99.90
46336;DHT22;31365;48.858;8.530;2023-02-28T17:12:36;3.80;99.90
46336;DHT22;31365;48.858;8.530;2023-02-28T17:15:06;3.70;99.90
46336;DHT22;31365;48.858;8.530;2023-02-28T17:17:35;3.70;99.90
46336;DHT22;31365;48.858;8.530;2023-02-28T17:20:09;3.60;99.90